Time;durP1;ratioP1;P1;durP2;ratioP2;P2;SDS_P1;SDS_P2;PMS_P1;PMS_P2;Temp;Humidity;BMP_temperature;BMP_pressure;BME280_temperature;BME280_humidity;BME280_pressure;Samples;Min_cycle;Max_cycle;Signal;HPM_P1;HPM_P2
2022/11/30 00:01:12;;;;;;;26.67;18.02;;;;;;;;;;5012332;28;93063;-69
2022/11/30 00:03:38;;;;;;;23.75;17.67;;;;;;;;;;5010833;28;92685;-69
2022/11/30 00:06:05;;;;;;;27.08;17.13;;;;;;;;;;5011438;28;92536;-71
2022/11/30 00:08:31;;;;;;;29.95;17.55;;;;;;;;;;5013349;28;93927;-68
2022/11/30 00:10:58;;;;;;;25.60;17.90;;;;;;;;;;5012796;28;95611;-69
2022/11/30 00:13:24;;;;;;;30.13;18.88;;;;;;;;;;5017575;28;92793;-69
2022/11/30 00:15:50;;;;;;;26.65;17.05;;;;;;;;;;5015703;28;93416;-69
2022/11/30 00:18:17;;;;;;;27.40;17.48;;;;;;;;;;5015954;28;92416;-69
2022/11/30 00:20:43;;;;;;;27.80;18.70;;;;;;;;;;5014807;28;93334;-69
2022/11/30 00:23:10;;;;;;;30.00;18.55;;;;;;;;;;5014607;28;93491;-69
2022/11/30 00:25:36;;;;;;;30.38;17.85;;;;;;;;;;5015034;28;92415;-69
2022/11/30 00:28:02;;;;;;;25.15;16.98;;;;;;;;;;5014829;28;93535;-70
2022/11/30 00:30:29;;;;;;;25.88;17.65;;;;;;;;;;5014188;28;94712;-69
2022/11/30 00:32:56;;;;;;;29.25;17.02;;;;;;;;;;5012792;28;92646;-68
2022/11/30 00:35:23;;;;;;;30.17;17.17;;;;;;;;;;5008440;28;96511;-69
2022/11/30 00:37:49;;;;;;;25.35;17.30;;;;;;;;;;5014237;28;92695;-69
2022/11/30 00:40:16;;;;;;;29.60;17.33;;;;;;;;;;5014013;28;92826;-69
2022/11/30 00:42:42;;;;;;;25.88;17.15;;;;;;;;;;5009765;28;93217;-69
2022/11/30 00:45:08;;;;;;;28.75;18.00;;;;;;;;;;5014262;28;92478;-69
2022/11/30 00:47:35;;;;;;;30.52;17.98;;;;;;;;;;5014415;28;93197;-70
2022/11/30 00:50:02;;;;;;;34.25;18.88;;;;;;;;;;5013357;28;93531;-70
2022/11/30 00:52:29;;;;;;;29.40;18.63;;;;;;;;;;5012954;28;91995;-69
2022/11/30 00:54:55;;;;;;;28.20;18.45;;;;;;;;;;5017786;28;92620;-69
2022/11/30 00:57:21;;;;;;;27.88;19.05;;;;;;;;;;5014223;28;92593;-69
2022/11/30 00:59:48;;;;;;;28.10;18.48;;;;;;;;;;4996829;28;95038;-70
2022/11/30 01:02:14;;;;;;;30.98;18.95;;;;;;;;;;5014082;28;93687;-69
2022/11/30 01:04:40;;;;;;;26.83;17.85;;;;;;;;;;5011220;28;92623;-70
2022/11/30 01:07:07;;;;;;;33.65;18.88;;;;;;;;;;5013994;28;93103;-69
2022/11/30 01:09:33;;;;;;;31.10;18.90;;;;;;;;;;5014268;28;93645;-69
2022/11/30 01:11:59;;;;;;;32.85;18.67;;;;;;;;;;5012624;28;92504;-69
2022/11/30 01:14:26;;;;;;;27.98;17.88;;;;;;;;;;5014127;28;93963;-69
2022/11/30 01:16:52;;;;;;;27.33;18.20;;;;;;;;;;5017676;28;92633;-69
2022/11/30 01:19:22;;;;;;;23.48;17.25;;;;;;;;;;5012056;28;93735;-69
2022/11/30 01:21:48;;;;;;;30.38;18.95;;;;;;;;;;5001063;28;94506;-69
2022/11/30 01:24:14;;;;;;;31.52;19.08;;;;;;;;;;5011801;28;94870;-69
2022/11/30 01:26:41;;;;;;;34.72;18.75;;;;;;;;;;5012604;28;95922;-70
2022/11/30 01:29:07;;;;;;;35.40;19.27;;;;;;;;;;5013065;28;93819;-69
2022/11/30 01:31:35;;;;;;;32.17;19.63;;;;;;;;;;5014666;28;92531;-69
2022/11/30 01:34:01;;;;;;;27.52;18.77;;;;;;;;;;5004949;28;93561;-69
2022/11/30 01:36:28;;;;;;;28.45;18.70;;;;;;;;;;5014823;28;93773;-69
2022/11/30 01:38:55;;;;;;;29.75;18.80;;;;;;;;;;5027403;28;92490;-69
2022/11/30 01:41:26;;;;;;;38.58;18.90;;;;;;;;;;5013054;28;93430;-69
2022/11/30 01:43:54;;;;;;;31.05;18.95;;;;;;;;;;5012765;28;92458;-70
2022/11/30 01:46:35;;;;;;;30.63;18.90;;;;;;;;;;5013257;28;93217;-69
2022/11/30 01:49:01;;;;;;;;;;;;;;;;;;5012896;28;95936;-69
2022/11/30 01:51:30;;;;;;;33.45;19.77;;;;;;;;;;5014484;28;120604;-69
2022/11/30 01:53:57;;;;;;;28.42;19.20;;;;;;;;;;5013799;28;94199;-69
2022/11/30 01:56:23;;;;;;;30.83;18.92;;;;;;;;;;5012593;28;93584;-69
2022/11/30 01:58:49;;;;;;;30.95;19.45;;;;;;;;;;5013208;28;92720;-70
2022/11/30 02:01:16;;;;;;;33.75;19.92;;;;;;;;;;5015750;28;93325;-69
2022/11/30 02:03:47;;;;;;;28.20;18.33;;;;;;;;;;5012425;28;92552;-69
2022/11/30 02:06:14;;;;;;;29.92;18.08;;;;;;;;;;5012198;28;93206;-69
2022/11/30 02:08:40;;;;;;;33.55;19.75;;;;;;;;;;5012751;28;93420;-71
2022/11/30 02:11:10;;;;;;;30.33;19.15;;;;;;;;;;5013589;28;92505;-69
2022/11/30 02:13:48;;;;;;;35.40;18.58;;;;;;;;;;5012709;28;95012;-69
2022/11/30 02:16:22;;;;;;;26.58;17.48;;;;;;;;;;5012332;28;93620;-69
2022/11/30 02:18:52;;;;;;;31.65;18.58;;;;;;;;;;4996046;28;92650;-70
2022/11/30 02:21:33;;;;;;;39.40;17.85;;;;;;;;;;5014813;28;94232;-70
2022/11/30 02:24:05;;;;;;;32.97;17.33;;;;;;;;;;5013459;28;92783;-70
2022/11/30 02:26:37;;;;;;;35.20;17.92;;;;;;;;;;5011427;28;93256;-70
2022/11/30 02:29:13;;;;;;;32.55;18.13;;;;;;;;;;5012072;28;93588;-70
2022/11/30 02:31:47;;;;;;;36.97;18.60;;;;;;;;;;5012347;28;91922;-70
2022/11/30 02:34:14;;;;;;;29.17;17.98;;;;;;;;;;5010889;28;92704;-70
2022/11/30 02:36:41;;;;;;;33.22;17.30;;;;;;;;;;5013011;28;93435;-70
2022/11/30 02:39:08;;;;;;;34.72;18.88;;;;;;;;;;5008790;28;94916;-71
2022/11/30 02:41:36;;;;;;;34.83;18.42;;;;;;;;;;5013472;28;95500;-70
2022/11/30 02:44:04;;;;;;;27.85;16.98;;;;;;;;;;5015431;28;95134;-70
2022/11/30 02:46:38;;;;;;;32.10;17.05;;;;;;;;;;5012829;28;93359;-70
2022/11/30 02:49:07;;;;;;;29.65;17.77;;;;;;;;;;5012493;28;93292;-70
2022/11/30 02:51:34;;;;;;;34.38;18.55;;;;;;;;;;5013377;28;92614;-70
2022/11/30 02:54:01;;;;;;;29.67;17.60;;;;;;;;;;5011717;28;93032;-70
2022/11/30 02:56:28;;;;;;;34.60;19.05;;;;;;;;;;5011196;28;93542;-70
2022/11/30 02:58:54;;;;;;;32.53;18.77;;;;;;;;;;5011066;28;92563;-70
2022/11/30 03:01:20;;;;;;;32.80;18.30;;;;;;;;;;5012525;28;93267;-70
2022/11/30 03:03:47;;;;;;;38.60;17.52;;;;;;;;;;5008755;28;95293;-70
2022/11/30 03:06:13;;;;;;;26.70;17.63;;;;;;;;;;5014138;28;92464;-70
2022/11/30 03:08:39;;;;;;;31.70;19.30;;;;;;;;;;5012258;28;94721;-70
2022/11/30 03:11:05;;;;;;;31.38;18.65;;;;;;;;;;5009949;28;92624;-70
2022/11/30 03:13:32;;;;;;;32.60;17.48;;;;;;;;;;5011242;28;93225;-70
2022/11/30 03:16:06;;;;;;;31.60;18.75;;;;;;;;;;5011420;28;96441;-70
2022/11/30 03:18:32;;;;;;;30.67;18.13;;;;;;;;;;5013434;28;92720;-70
2022/11/30 03:20:58;;;;;;;31.42;18.38;;;;;;;;;;5012998;28;93183;-70
2022/11/30 03:23:25;;;;;;;30.25;18.45;;;;;;;;;;5012741;28;93911;-70
2022/11/30 03:25:56;;;;;;;44.70;18.88;;;;;;;;;;5010981;28;92635;-69
2022/11/30 03:28:22;;;;;;;34.58;19.17;;;;;;;;;;4997631;28;94794;-70
2022/11/30 03:30:48;;;;;;;28.30;17.42;;;;;;;;;;5012168;28;92583;-70
2022/11/30 03:33:16;;;;;;;32.70;17.90;;;;;;;;;;5011805;28;93177;-70
2022/11/30 03:35:43;;;;;;;26.95;17.13;;;;;;;;;;5003081;28;93571;-70
2022/11/30 03:38:10;;;;;;;28.73;16.65;;;;;;;;;;5011636;28;92682;-70
2022/11/30 03:40:36;;;;;;;37.42;17.20;;;;;;;;;;5011017;28;94156;-70
2022/11/30 03:43:03;;;;;;;41.17;18.73;;;;;;;;;;5012587;28;93427;-70
2022/11/30 03:45:29;;;;;;;31.20;17.70;;;;;;;;;;5015953;28;91772;-70
2022/11/30 03:47:55;;;;;;;27.08;17.73;;;;;;;;;;5015833;28;93942;-70
2022/11/30 03:50:22;;;;;;;30.35;17.50;;;;;;;;;;5016918;28;94157;-70
2022/11/30 03:52:48;;;;;;;34.20;19.05;;;;;;;;;;5014340;28;94829;-70
2022/11/30 03:55:14;;;;;;;30.80;18.17;;;;;;;;;;5013655;28;93682;-70
2022/11/30 03:57:41;;;;;;;34.65;18.30;;;;;;;;;;5014864;28;92540;-70
2022/11/30 04:00:07;;;;;;;29.40;18.13;;;;;;;;;;5015635;28;95384;-70
2022/11/30 04:02:33;;;;;;;37.40;18.50;;;;;;;;;;5014601;28;93767;-70
2022/11/30 04:05:05;;;;;;;31.42;17.38;;;;;;;;;;5015312;28;92460;-70
2022/11/30 04:07:31;;;;;;;32.78;17.27;;;;;;;;;;5014434;28;93148;-70
2022/11/30 04:09:58;;;;;;;28.35;16.63;;;;;;;;;;5014511;28;92239;-70
2022/11/30 04:12:30;;;;;;;30.10;16.88;;;;;;;;;;5018152;28;92536;-70
2022/11/30 04:14:56;;;;;;;26.42;16.65;;;;;;;;;;5015106;28;93421;-70
2022/11/30 04:17:23;;;;;;;30.77;17.27;;;;;;;;;;5009833;28;94841;-71
2022/11/30 04:19:49;;;;;;;26.00;16.63;;;;;;;;;;5015817;28;96028;-71
2022/11/30 04:22:15;;;;;;;29.70;16.45;;;;;;;;;;5014612;28;93234;-69
2022/11/30 04:24:42;;;;;;;25.35;16.15;;;;;;;;;;5013790;28;93831;-69
2022/11/30 04:27:08;;;;;;;26.90;17.27;;;;;;;;;;5013790;28;94346;-69
2022/11/30 04:29:34;;;;;;;21.60;14.68;;;;;;;;;;5011935;28;94605;-69
2022/11/30 04:32:00;;;;;;;31.52;16.08;;;;;;;;;;5016140;28;92542;-69
2022/11/30 04:34:27;;;;;;;25.98;15.30;;;;;;;;;;5014961;28;92883;-69
2022/11/30 04:36:53;;;;;;;25.00;14.93;;;;;;;;;;5013557;28;92534;-69
2022/11/30 04:39:25;;;;;;;26.48;15.35;;;;;;;;;;5014953;28;93439;-69
2022/11/30 04:41:51;;;;;;;26.55;15.48;;;;;;;;;;5011342;28;96030;-69
2022/11/30 04:44:18;;;;;;;34.30;16.17;;;;;;;;;;5017363;28;92571;-69
2022/11/30 04:46:44;;;;;;;24.08;14.27;;;;;;;;;;5013953;28;93613;-69
2022/11/30 04:49:11;;;;;;;29.42;15.85;;;;;;;;;;5015580;28;93241;-68
2022/11/30 04:51:38;;;;;;;28.80;15.73;;;;;;;;;;5012448;28;93888;-69
2022/11/30 04:54:04;;;;;;;23.42;14.73;;;;;;;;;;5015996;28;93489;-69
2022/11/30 04:56:30;;;;;;;26.38;15.27;;;;;;;;;;5013329;28;92710;-69
2022/11/30 04:58:57;;;;;;;23.25;14.38;;;;;;;;;;5014345;28;93540;-69
2022/11/30 05:01:23;;;;;;;25.40;15.30;;;;;;;;;;5013339;28;93970;-69
2022/11/30 05:03:49;;;;;;;22.88;14.68;;;;;;;;;;5013312;28;92601;-69
2022/11/30 05:06:16;;;;;;;31.10;16.10;;;;;;;;;;5012244;28;94875;-69
2022/11/30 05:08:42;;;;;;;27.73;14.75;;;;;;;;;;5013372;28;93992;-69
2022/11/30 05:11:08;;;;;;;29.60;14.15;;;;;;;;;;5013778;28;92470;-69
2022/11/30 05:13:35;;;;;;;27.60;14.10;;;;;;;;;;5012573;28;93023;-69
2022/11/30 05:16:01;;;;;;;35.95;15.77;;;;;;;;;;5016363;28;94436;-69
2022/11/30 05:18:28;;;;;;;41.80;15.73;;;;;;;;;;5014090;28;93359;-69
2022/11/30 05:20:54;;;;;;;24.50;16.33;;;;;;;;;;5012001;28;93470;-69
2022/11/30 05:23:21;;;;;;;26.02;15.23;;;;;;;;;;5010530;28;92071;-69
2022/11/30 05:25:47;;;;;;;27.95;16.60;;;;;;;;;;4998231;28;92910;-69
2022/11/30 05:28:13;;;;;;;27.40;16.00;;;;;;;;;;5012556;28;94081;-69
2022/11/30 05:30:41;;;;;;;25.55;15.10;;;;;;;;;;5012302;28;94855;-69
2022/11/30 05:33:07;;;;;;;32.42;15.30;;;;;;;;;;5012820;28;95940;-70
2022/11/30 05:35:34;;;;;;;25.83;15.38;;;;;;;;;;5010275;28;93448;-69
2022/11/30 05:38:01;;;;;;;32.13;16.70;;;;;;;;;;5009628;28;92559;-69
2022/11/30 05:40:28;;;;;;;33.35;16.90;;;;;;;;;;5012409;28;93808;-69
2022/11/30 05:42:55;;;;;;;29.02;15.80;;;;;;;;;;5012120;28;92817;-69
2022/11/30 05:45:22;;;;;;;23.02;15.50;;;;;;;;;;5013736;28;93412;-68
2022/11/30 05:47:48;;;;;;;22.98;15.32;;;;;;;;;;5012431;28;93255;-69
2022/11/30 05:50:14;;;;;;;25.98;16.33;;;;;;;;;;5012471;28;92911;-69
2022/11/30 05:52:41;;;;;;;32.97;15.20;;;;;;;;;;5013207;28;93005;-69
2022/11/30 05:55:07;;;;;;;25.02;15.15;;;;;;;;;;5012606;28;95989;-69
2022/11/30 05:57:37;;;;;;;21.85;14.52;;;;;;;;;;5011908;28;92501;-69
2022/11/30 06:00:04;;;;;;;28.83;14.83;;;;;;;;;;5017302;28;93574;-68
2022/11/30 06:02:31;;;;;;;23.98;15.07;;;;;;;;;;5011944;28;93569;-68
2022/11/30 06:04:57;;;;;;;23.58;15.07;;;;;;;;;;5012952;28;93732;-69
2022/11/30 06:07:23;;;;;;;21.75;14.07;;;;;;;;;;5012675;28;94105;-68
2022/11/30 06:09:50;;;;;;;31.25;15.40;;;;;;;;;;5011817;28;92571;-69
2022/11/30 06:12:16;;;;;;;25.80;15.05;;;;;;;;;;5013432;28;93158;-69
2022/11/30 06:14:42;;;;;;;25.20;14.85;;;;;;;;;;5014133;28;94727;-70
2022/11/30 06:17:09;;;;;;;29.52;14.45;;;;;;;;;;5012122;28;92543;-69
2022/11/30 06:19:35;;;;;;;24.27;14.85;;;;;;;;;;5010274;28;95606;-69
2022/11/30 06:22:01;;;;;;;23.65;15.63;;;;;;;;;;5015871;28;93778;-69
2022/11/30 06:24:28;;;;;;;26.75;14.50;;;;;;;;;;5012516;28;93288;-69
2022/11/30 06:26:54;;;;;;;26.15;15.27;;;;;;;;;;5012323;28;93601;-69
2022/11/30 06:29:20;;;;;;;21.75;14.50;;;;;;;;;;5012704;28;93305;-69
2022/11/30 06:31:47;;;;;;;27.45;14.48;;;;;;;;;;5012453;28;93385;-68
2022/11/30 06:34:13;;;;;;;29.60;15.88;;;;;;;;;;5010473;28;94499;-69
2022/11/30 06:36:39;;;;;;;24.88;14.82;;;;;;;;;;5011401;28;91971;-69
2022/11/30 06:39:07;;;;;;;21.20;14.18;;;;;;;;;;5013038;28;94333;-70
2022/11/30 06:41:34;;;;;;;24.25;14.38;;;;;;;;;;5013941;28;95063;-70
2022/11/30 06:44:00;;;;;;;25.85;14.63;;;;;;;;;;5010820;28;94902;-70
2022/11/30 06:46:26;;;;;;;22.63;13.32;;;;;;;;;;5011888;28;93520;-70
2022/11/30 06:48:52;;;;;;;20.05;12.73;;;;;;;;;;5011558;28;92483;-69
2022/11/30 06:51:19;;;;;;;18.75;13.15;;;;;;;;;;5012439;28;93207;-70
2022/11/30 06:53:45;;;;;;;31.45;13.73;;;;;;;;;;5012721;28;95292;-70
2022/11/30 06:56:12;;;;;;;27.13;14.70;;;;;;;;;;5011568;28;92485;-70
2022/11/30 06:58:38;;;;;;;23.02;13.65;;;;;;;;;;5011967;28;93213;-70
2022/11/30 07:01:06;;;;;;;24.95;14.07;;;;;;;;;;5010756;28;92784;-68
2022/11/30 07:03:32;;;;;;;22.60;13.70;;;;;;;;;;5012549;28;94908;-68
2022/11/30 07:05:58;;;;;;;23.20;12.45;;;;;;;;;;5012689;28;93975;-67
2022/11/30 07:08:25;;;;;;;21.17;12.98;;;;;;;;;;5013671;27;95120;-69
2022/11/30 07:10:51;;;;;;;22.77;13.07;;;;;;;;;;5011519;28;95402;-66
2022/11/30 07:13:18;;;;;;;19.90;13.93;;;;;;;;;;5013361;28;93456;-67
2022/11/30 07:15:44;;;;;;;25.35;13.93;;;;;;;;;;5021525;28;93267;-68
2022/11/30 07:18:11;;;;;;;20.25;13.88;;;;;;;;;;5014469;28;93166;-66
2022/11/30 07:20:37;;;;;;;20.02;12.30;;;;;;;;;;5016449;28;93345;-67
2022/11/30 07:26:05;;;;;;;18.52;12.15;;;;;;;;;;5019506;28;93569;-67
2022/11/30 07:28:32;;;;;;;20.13;11.20;;;;;;;;;;5014443;28;92550;-66
2022/11/30 07:30:58;;;;;;;25.25;12.18;;;;;;;;;;5014409;28;94709;-68
2022/11/30 07:33:25;;;;;;;19.77;12.10;;;;;;;;;;5013663;28;97097;-68
2022/11/30 07:35:51;;;;;;;24.42;11.02;;;;;;;;;;5014303;28;92511;-68
2022/11/30 07:38:18;;;;;;;19.88;11.07;;;;;;;;;;5007701;28;93795;-67
2022/11/30 07:40:44;;;;;;;23.50;12.57;;;;;;;;;;5010644;28;93736;-69
2022/11/30 07:43:10;;;;;;;17.40;11.50;;;;;;;;;;5020445;27;93159;-68
2022/11/30 07:45:37;;;;;;;19.75;12.95;;;;;;;;;;5015757;27;93209;-67
2022/11/30 07:48:03;;;;;;;20.02;12.68;;;;;;;;;;5018439;28;93463;-68
2022/11/30 07:50:30;;;;;;;20.52;13.23;;;;;;;;;;5014794;28;93228;-66
2022/11/30 07:52:57;;;;;;;20.55;11.90;;;;;;;;;;5015054;28;93405;-66
2022/11/30 07:55:23;;;;;;;18.15;11.95;;;;;;;;;;5013311;28;92579;-68
2022/11/30 07:57:49;;;;;;;19.73;12.02;;;;;;;;;;5017802;28;96756;-67
2022/11/30 08:00:16;;;;;;;17.27;10.70;;;;;;;;;;5015823;28;93486;-68
2022/11/30 08:02:42;;;;;;;19.08;11.93;;;;;;;;;;5014527;28;92418;-67
2022/11/30 08:05:10;;;;;;;21.75;12.43;;;;;;;;;;5011109;28;93554;-68
2022/11/30 08:07:37;;;;;;;17.83;10.60;;;;;;;;;;5012345;28;96253;-68
2022/11/30 08:10:04;;;;;;;20.75;11.63;;;;;;;;;;5006347;28;92704;-68
2022/11/30 08:12:30;;;;;;;19.88;10.73;;;;;;;;;;5018070;27;93724;-67
2022/11/30 08:14:56;;;;;;;19.05;11.35;;;;;;;;;;5013041;28;91764;-67
2022/11/30 08:17:42;;;;;;;17.30;9.63;;;;;;;;;;5019441;28;92665;-67
2022/11/30 08:20:10;;;;;;;15.85;10.65;;;;;;;;;;5035939;27;93714;-68
2022/11/30 08:22:37;;;;;;;23.92;10.75;;;;;;;;;;5026091;27;95109;-67
2022/11/30 08:25:03;;;;;;;17.90;11.68;;;;;;;;;;5033018;28;96715;-68
2022/11/30 08:27:29;;;;;;;21.58;11.27;;;;;;;;;;5019818;27;94384;-68
2022/11/30 08:29:56;;;;;;;15.63;10.68;;;;;;;;;;5014416;27;93635;-67
2022/11/30 08:32:22;;;;;;;24.30;11.60;;;;;;;;;;5017728;28;93162;-68
2022/11/30 08:34:48;;;;;;;20.85;11.90;;;;;;;;;;5025436;27;92804;-66
2022/11/30 08:37:15;;;;;;;16.55;10.70;;;;;;;;;;5013390;28;92445;-67
2022/11/30 08:39:41;;;;;;;20.00;11.50;;;;;;;;;;5014851;28;92532;-66
2022/11/30 08:42:08;;;;;;;19.70;10.65;;;;;;;;;;5013753;28;94199;-67
2022/11/30 08:44:34;;;;;;;19.85;9.98;;;;;;;;;;5015889;28;96713;-68
2022/11/30 08:47:00;;;;;;;20.60;10.73;;;;;;;;;;5012113;28;96073;-65
2022/11/30 08:49:27;;;;;;;19.00;10.82;;;;;;;;;;5013175;28;92519;-68
2022/11/30 08:51:54;;;;;;;18.52;11.38;;;;;;;;;;5017005;28;93343;-69
2022/11/30 08:54:41;;;;;;;23.85;11.35;;;;;;;;;;5025841;27;94149;-69
2022/11/30 08:57:08;;;;;;;18.02;12.43;;;;;;;;;;5023037;27;93562;-69
2022/11/30 08:59:34;;;;;;;24.23;12.25;;;;;;;;;;5011689;28;93489;-68
2022/11/30 09:02:00;;;;;;;19.40;12.02;;;;;;;;;;5013577;28;92543;-68
2022/11/30 09:04:27;;;;;;;25.88;13.52;;;;;;;;;;5013396;28;93181;-68
2022/11/30 09:06:57;;;;;;;29.75;14.52;;;;;;;;;;5004905;28;93879;-66
2022/11/30 09:09:24;;;;;;;24.70;14.20;;;;;;;;;;5012097;28;92470;-66
2022/11/30 09:11:50;;;;;;;27.75;16.52;;;;;;;;;;5034038;27;94833;-66
2022/11/30 09:14:17;;;;;;;25.25;15.25;;;;;;;;;;5017440;28;93919;-66
2022/11/30 09:16:43;;;;;;;27.75;15.52;;;;;;;;;;5017721;28;93911;-68
2022/11/30 09:19:09;;;;;;;26.45;16.88;;;;;;;;;;5023904;27;93702;-67
2022/11/30 09:21:36;;;;;;;35.70;18.52;;;;;;;;;;5026411;27;92524;-68
2022/11/30 09:24:02;;;;;;;30.17;17.40;;;;;;;;;;5031364;27;93224;-67
2022/11/30 09:26:29;;;;;;;34.35;18.80;;;;;;;;;;5029626;27;93722;-66
2022/11/30 09:28:55;;;;;;;30.08;17.75;;;;;;;;;;4994986;28;91724;-67
2022/11/30 09:31:22;;;;;;;31.52;18.15;;;;;;;;;;4994441;28;92460;-68
2022/11/30 09:33:49;;;;;;;44.30;18.85;;;;;;;;;;4994815;28;94747;-69
2022/11/30 09:36:19;;;;;;;36.55;18.17;;;;;;;;;;5033885;27;94959;-68
2022/11/30 09:38:46;;;;;;;33.17;19.10;;;;;;;;;;5022563;27;93434;-68
2022/11/30 09:41:13;;;;;;;34.92;19.33;;;;;;;;;;5025185;27;92707;-68
2022/11/30 09:43:57;;;;;;;32.90;18.42;;;;;;;;;;5029531;27;94205;-68
2022/11/30 09:46:37;;;;;;;35.90;20.88;;;;;;;;;;5013477;28;93451;-68
2022/11/30 09:49:17;;;;;;;35.83;19.13;;;;;;;;;;5023308;28;92387;-69
2022/11/30 09:51:45;;;;;;;37.22;20.17;;;;;;;;;;5012167;28;95947;-68
2022/11/30 09:54:15;;;;;;;37.92;19.88;;;;;;;;;;5034651;28;92681;-68
2022/11/30 09:56:42;;;;;;;;;;;;;;;;;;5031521;27;92484;-68
2022/11/30 09:59:11;;;;;;;39.83;21.05;;;;;;;;;;5037529;28;120320;-69
2022/11/30 10:01:37;;;;;;;33.15;20.35;;;;;;;;;;5027012;27;94887;-68
2022/11/30 10:04:18;;;;;;;31.77;20.15;;;;;;;;;;5031311;27;98155;-68
2022/11/30 10:06:51;;;;;;;29.00;19.23;;;;;;;;;;5030895;27;93532;-68
2022/11/30 10:09:41;;;;;;;29.92;18.80;;;;;;;;;;5034586;27;92409;-64
2022/11/30 10:12:13;;;;;;;27.80;17.52;;;;;;;;;;5025505;28;94343;-65
2022/11/30 10:14:39;;;;;;;23.90;17.52;;;;;;;;;;5029947;27;93375;-65
2022/11/30 10:17:33;;;;;;;26.63;17.90;;;;;;;;;;5008231;28;92428;-65
2022/11/30 10:19:59;;;;;;;29.70;18.13;;;;;;;;;;5004648;28;93551;-65
2022/11/30 10:22:51;;;;;;;28.20;18.17;;;;;;;;;;5026019;28;93417;-66
2022/11/30 10:25:21;;;;;;;26.55;17.60;;;;;;;;;;5025235;27;94438;-65
2022/11/30 10:27:52;;;;;;;26.73;16.90;;;;;;;;;;5031287;28;97310;-64
2022/11/30 10:30:22;;;;;;;24.73;17.35;;;;;;;;;;5033669;27;92560;-65
2022/11/30 10:32:53;;;;;;;23.95;16.77;;;;;;;;;;5032509;27;93418;-65
2022/11/30 10:35:40;;;;;;;24.48;17.27;;;;;;;;;;5020229;27;93767;-65
2022/11/30 10:38:15;;;;;;;24.45;16.70;;;;;;;;;;5027977;28;92560;-65
2022/11/30 10:40:49;;;;;;;25.58;18.08;;;;;;;;;;5033627;27;93436;-65
2022/11/30 10:43:51;;;;;;;29.00;17.70;;;;;;;;;;5033630;27;96632;-64
2022/11/30 10:46:22;;;;;;;28.58;18.25;;;;;;;;;;4994532;28;92110;-64
2022/11/30 10:49:01;;;;;;;30.58;17.23;;;;;;;;;;4971301;28;93555;-65
2022/11/30 10:51:28;;;;;;;22.73;15.95;;;;;;;;;;4971308;28;92823;-65
2022/11/30 10:53:56;;;;;;;22.75;15.13;;;;;;;;;;4953196;28;94968;-65
2022/11/30 10:56:22;;;;;;;19.73;15.35;;;;;;;;;;4972238;28;93470;-64
2022/11/30 10:59:10;;;;;;;22.00;15.32;;;;;;;;;;5007189;28;92749;-64
2022/11/30 11:01:38;;;;;;;18.50;14.32;;;;;;;;;;4989991;28;93430;-65
2022/11/30 11:04:26;;;;;;;20.80;14.63;;;;;;;;;;4990840;28;93841;-65
2022/11/30 11:06:54;;;;;;;23.95;15.32;;;;;;;;;;4993427;28;92649;-64
2022/11/30 11:09:31;;;;;;;18.92;14.95;;;;;;;;;;5005593;28;93565;-65
2022/11/30 11:12:02;;;;;;;19.40;14.60;;;;;;;;;;4994493;28;91898;-65
2022/11/30 11:14:29;;;;;;;22.10;13.80;;;;;;;;;;5008202;28;92512;-67
2022/11/30 11:17:04;;;;;;;17.45;13.25;;;;;;;;;;4996542;28;93500;-64
2022/11/30 11:19:38;;;;;;;17.02;13.63;;;;;;;;;;4975813;28;94956;-63
2022/11/30 11:22:21;;;;;;;21.00;14.43;;;;;;;;;;5011613;28;95881;-64
2022/11/30 11:24:49;;;;;;;18.45;13.90;;;;;;;;;;5012287;28;93804;-63
2022/11/30 11:27:29;;;;;;;18.30;12.98;;;;;;;;;;5014178;28;92673;-64
2022/11/30 11:29:55;;;;;;;;;;;;;;;;;;5015058;28;93530;-63
2022/11/30 11:32:23;;;;;;;20.35;13.20;;;;;;;;;;5009467;28;120921;-65
2022/11/30 11:34:50;;;;;;;22.38;13.52;;;;;;;;;;5015955;27;94442;-65
2022/11/30 11:37:21;;;;;;;16.23;13.32;;;;;;;;;;5010807;28;92710;-65
2022/11/30 11:39:58;;;;;;;18.77;13.77;;;;;;;;;;5016092;28;92635;-65
2022/11/30 11:42:25;;;;;;;17.73;13.15;;;;;;;;;;5032624;27;93512;-65
2022/11/30 11:44:53;;;;;;;17.00;12.88;;;;;;;;;;5031215;27;96221;-65
2022/11/30 11:47:25;;;;;;;15.98;12.93;;;;;;;;;;5022269;28;92584;-65
2022/11/30 11:50:02;;;;;;;16.02;12.68;;;;;;;;;;5014021;27;93350;-65
2022/11/30 11:52:28;;;;;;;16.08;12.88;;;;;;;;;;5015757;28;93528;-65
2022/11/30 11:54:56;;;;;;;19.05;13.40;;;;;;;;;;5023623;27;93169;-65
2022/11/30 11:57:26;;;;;;;20.02;13.75;;;;;;;;;;5024488;27;94152;-64
2022/11/30 12:00:00;;;;;;;23.05;14.15;;;;;;;;;;5011227;28;92547;-65
2022/11/30 12:02:29;;;;;;;17.52;13.32;;;;;;;;;;5013221;28;93503;-65
2022/11/30 12:05:15;;;;;;;19.85;14.50;;;;;;;;;;5025613;28;94554;-64
2022/11/30 12:07:49;;;;;;;19.02;14.23;;;;;;;;;;5033458;28;92602;-63
2022/11/30 12:10:34;;;;;;;16.17;13.48;;;;;;;;;;5010297;28;94801;-63
2022/11/30 12:13:20;;;;;;;17.75;12.60;;;;;;;;;;5011892;28;93431;-64
2022/11/30 12:15:50;;;;;;;20.17;13.38;;;;;;;;;;5028152;28;92891;-65
2022/11/30 12:18:16;;;;;;;17.92;13.07;;;;;;;;;;5014417;28;93932;-65
2022/11/30 12:20:58;;;;;;;18.58;13.55;;;;;;;;;;5015385;28;92450;-65
2022/11/30 12:23:24;;;;;;;19.65;13.57;;;;;;;;;;5017828;28;93310;-65
2022/11/30 12:25:58;;;;;;;17.92;13.00;;;;;;;;;;5027873;27;93413;-65
2022/11/30 12:28:37;;;;;;;17.73;13.73;;;;;;;;;;5019217;28;92835;-64
2022/11/30 12:31:13;;;;;;;18.90;13.27;;;;;;;;;;5014912;28;92547;-64
2022/11/30 12:33:40;;;;;;;17.08;13.77;;;;;;;;;;5012967;28;93522;-64
2022/11/30 12:36:09;;;;;;;21.10;14.60;;;;;;;;;;5030972;28;94897;-64
2022/11/30 12:38:46;;;;;;;18.15;14.30;;;;;;;;;;5036812;27;95574;-65
2022/11/30 12:41:31;;;;;;;17.23;14.48;;;;;;;;;;5012056;28;92661;-65
2022/11/30 12:44:00;;;;;;;20.77;15.30;;;;;;;;;;5033440;27;93134;-64
2022/11/30 12:46:44;;;;;;;19.30;14.98;;;;;;;;;;5023342;27;94850;-64
2022/11/30 12:49:29;;;;;;;23.23;15.20;;;;;;;;;;5014542;28;92515;-63
2022/11/30 12:51:56;;;;;;;18.90;14.70;;;;;;;;;;5006546;28;93221;-64
2022/11/30 12:54:31;;;;;;;22.92;14.98;;;;;;;;;;5015739;28;93093;-64
2022/11/30 12:57:10;;;;;;;23.95;16.42;;;;;;;;;;5031247;28;92444;-64
2022/11/30 12:59:42;;;;;;;21.58;16.23;;;;;;;;;;5037333;27;93534;-63
2022/11/30 13:02:19;;;;;;;22.73;16.67;;;;;;;;;;5033606;27;94817;-64
2022/11/30 13:04:50;;;;;;;23.45;16.70;;;;;;;;;;5028971;27;95718;-64
2022/11/30 13:07:42;;;;;;;24.25;17.08;;;;;;;;;;5033296;27;93471;-64
2022/11/30 13:10:21;;;;;;;24.48;17.90;;;;;;;;;;5021799;27;92454;-65
2022/11/30 13:12:49;;;;;;;26.65;17.33;;;;;;;;;;5013748;28;93526;-64
2022/11/30 13:15:17;;;;;;;27.73;17.25;;;;;;;;;;5015282;28;97596;-65
2022/11/30 13:17:44;;;;;;;27.42;18.38;;;;;;;;;;5021252;28;92506;-64
2022/11/30 13:20:13;;;;;;;32.25;18.17;;;;;;;;;;5012454;28;93675;-65
2022/11/30 13:22:45;;;;;;;24.27;17.77;;;;;;;;;;5010385;28;93655;-64
2022/11/30 13:25:23;;;;;;;24.55;17.42;;;;;;;;;;5020765;28;93197;-64
2022/11/30 13:28:14;;;;;;;25.38;17.80;;;;;;;;;;5003267;28;95771;-64
2022/11/30 13:30:40;;;;;;;;;;;;;;;;;;5025315;27;92937;-65
2022/11/30 13:33:25;;;;;;;25.65;17.88;;;;;;;;;;5036281;27;122517;-65
2022/11/30 13:35:52;;;;;;;29.30;17.33;;;;;;;;;;5023637;27;93704;-65
2022/11/30 13:38:20;;;;;;;28.88;17.55;;;;;;;;;;5015133;28;92587;-63
2022/11/30 13:41:04;;;;;;;25.92;17.83;;;;;;;;;;4994545;28;93224;-64
2022/11/30 13:43:34;;;;;;;23.90;16.67;;;;;;;;;;5000977;28;92502;-63
2022/11/30 13:46:01;;;;;;;27.70;17.42;;;;;;;;;;5015670;28;91700;-64
2022/11/30 13:48:38;;;;;;;26.60;17.35;;;;;;;;;;5027736;28;93277;-68
2022/11/30 13:51:04;;;;;;;25.15;17.02;;;;;;;;;;5021804;28;92484;-68
2022/11/30 13:53:37;;;;;;;24.30;16.58;;;;;;;;;;5026586;27;95054;-68
2022/11/30 13:56:06;;;;;;;26.88;17.08;;;;;;;;;;5020860;28;94260;-68
2022/11/30 13:58:33;;;;;;;26.77;16.70;;;;;;;;;;5033551;28;92623;-68
2022/11/30 14:01:01;;;;;;;23.23;15.23;;;;;;;;;;5034748;27;93167;-68
2022/11/30 14:03:28;;;;;;;26.10;16.35;;;;;;;;;;5024414;27;93708;-69
2022/11/30 14:05:55;;;;;;;24.85;15.73;;;;;;;;;;5033874;27;92417;-69
2022/11/30 14:08:22;;;;;;;24.85;15.75;;;;;;;;;;5029333;27;94459;-68
2022/11/30 14:10:51;;;;;;;24.85;16.13;;;;;;;;;;5013377;28;93177;-68
2022/11/30 14:13:19;;;;;;;27.17;16.42;;;;;;;;;;5012713;28;94131;-68
2022/11/30 14:15:46;;;;;;;27.38;16.92;;;;;;;;;;5013339;28;93393;-68
2022/11/30 14:18:18;;;;;;;29.85;16.90;;;;;;;;;;5008201;28;95740;-68
2022/11/30 14:21:01;;;;;;;26.10;16.27;;;;;;;;;;5020810;28;95601;-68
2022/11/30 14:23:42;;;;;;;24.48;16.13;;;;;;;;;;5011988;28;94301;-68
2022/11/30 14:26:12;;;;;;;28.77;15.48;;;;;;;;;;5032719;27;92553;-67
2022/11/30 14:28:38;;;;;;;24.15;15.45;;;;;;;;;;5011493;28;93587;-68
2022/11/30 14:31:07;;;;;;;24.35;15.50;;;;;;;;;;5014061;28;93441;-68
2022/11/30 14:33:43;;;;;;;25.63;16.25;;;;;;;;;;5014598;28;93133;-69